Time;durP1;ratioP1;P1;durP2;ratioP2;P2;SDS_P1;SDS_P2;PMS_P1;PMS_P2;Temp;Humidity;BMP_temperature;BMP_pressure;BME280_temperature;BME280_humidity;BME280_pressure;Samples;Min_cycle;Max_cycle;Signal;HPM_P1;HPM_P2
2024/01/21 00:01:47;;;;;;;;;;;-8.10;99.90;;;;;;5034458;28;19925;-72
2024/01/21 00:04:13;;;;;;;;;;;-8.20;99.90;;;;;;5034265;28;20334;-73
2024/01/21 00:06:40;;;;;;;;;;;-8.20;99.90;;;;;;5034303;28;19928;-72
2024/01/21 00:09:06;;;;;;;;;;;-8.20;99.90;;;;;;5034330;28;19925;-72
2024/01/21 00:11:34;;;;;;;;;;;-8.30;99.90;;;;;;5034230;28;20357;-73
2024/01/21 00:14:00;;;;;;;;;;;-8.20;99.90;;;;;;5034368;28;19929;-72
2024/01/21 00:16:28;;;;;;;;;;;-8.30;99.90;;;;;;5034507;28;19932;-73
2024/01/21 00:18:55;;;;;;;;;;;-8.30;99.90;;;;;;5040113;28;19932;-72
2024/01/21 00:21:21;;;;;;;;;;;-8.30;99.90;;;;;;5041574;28;19925;-73
2024/01/21 00:23:48;;;;;;;;;;;-8.30;99.90;;;;;;5049057;28;19925;-72
2024/01/21 00:26:14;;;;;;;;;;;-8.30;99.90;;;;;;5044516;28;19934;-72
2024/01/21 00:28:41;;;;;;;;;;;-8.30;99.90;;;;;;5039379;28;19925;-72
2024/01/21 00:31:08;;;;;;;;;;;-8.30;99.90;;;;;;5039117;28;19979;-72
2024/01/21 00:33:36;;;;;;;;;;;-8.30;99.90;;;;;;5038364;28;19967;-72
2024/01/21 00:36:03;;;;;;;;;;;-8.30;99.90;;;;;;5038629;28;19932;-73
2024/01/21 00:38:29;;;;;;;;;;;-8.40;99.90;;;;;;5038299;28;20267;-73
2024/01/21 00:40:56;;;;;;;;;;;-8.40;99.90;;;;;;5038224;28;19929;-73
2024/01/21 00:43:22;;;;;;;;;;;-8.40;99.90;;;;;;5037693;28;19936;-73
2024/01/21 00:45:49;;;;;;;;;;;-8.40;99.90;;;;;;5038185;28;19925;-72
2024/01/21 00:51:20;;;;;;;;;;;-8.40;99.90;;;;;;5037639;28;20039;-72
2024/01/21 00:53:46;;;;;;;;;;;-8.40;99.90;;;;;;5037380;28;19925;-72
2024/01/21 00:56:13;;;;;;;;;;;-8.50;99.90;;;;;;5037321;28;20413;-72
2024/01/21 00:58:40;;;;;;;;;;;-8.50;99.90;;;;;;5037520;28;19925;-72
2024/01/21 01:01:06;;;;;;;;;;;-8.50;99.90;;;;;;5037689;28;19925;-72
2024/01/21 01:03:34;;;;;;;;;;;-8.50;99.90;;;;;;5037437;28;19925;-72
2024/01/21 01:06:01;;;;;;;;;;;-8.50;99.90;;;;;;5037319;28;19936;-73
2024/01/21 01:08:29;;;;;;;;;;;-8.50;99.90;;;;;;5037809;28;19925;-72
2024/01/21 01:10:55;;;;;;;;;;;-8.60;99.90;;;;;;5037876;28;19925;-72
2024/01/21 01:13:22;;;;;;;;;;;-8.60;99.90;;;;;;5037776;28;20008;-72
2024/01/21 01:15:48;;;;;;;;;;;-8.60;99.90;;;;;;5037507;28;19932;-72
2024/01/21 01:18:15;;;;;;;;;;;-8.60;99.90;;;;;;5036997;28;19925;-71
2024/01/21 06:17:00;;;;;;;;;;;-9.10;99.90;;;;;;5034491;28;19975;-76
2024/01/21 06:19:27;;;;;;;;;;;-8.80;99.90;;;;;;5035578;28;19925;-76
2024/01/21 06:21:54;;;;;;;;;;;-8.80;99.90;;;;;;5035775;28;19929;-76
2024/01/21 06:24:21;;;;;;;;;;;-8.80;99.90;;;;;;5035916;28;19929;-76
2024/01/21 06:26:48;;;;;;;;;;;-8.80;99.90;;;;;;5054501;28;19925;-76
2024/01/21 06:29:14;;;;;;;;;;;-8.80;99.90;;;;;;5062548;28;19976;-75
2024/01/21 06:31:41;;;;;;;;;;;-8.80;99.90;;;;;;5063683;28;19925;-75
2024/01/21 06:34:09;;;;;;;;;;;-8.90;99.90;;;;;;5062692;28;19948;-76
2024/01/21 06:36:35;;;;;;;;;;;-8.90;99.90;;;;;;5062831;28;20396;-75
2024/01/21 06:39:03;;;;;;;;;;;-8.90;99.90;;;;;;5061091;28;20266;-75
2024/01/21 06:41:30;;;;;;;;;;;-8.90;99.90;;;;;;5060327;28;19924;-75
2024/01/21 06:43:56;;;;;;;;;;;-8.90;99.90;;;;;;5058206;28;19924;-76
2024/01/21 06:46:23;;;;;;;;;;;-8.90;99.90;;;;;;5056883;28;19924;-76
2024/01/21 06:48:49;;;;;;;;;;;-8.90;99.90;;;;;;5056478;28;19979;-76
2024/01/21 06:51:31;;;;;;;;;;;-8.90;99.90;;;;;;5056049;28;19925;-76
2024/01/21 06:53:57;;;;;;;;;;;-8.90;99.90;;;;;;5056252;28;19924;-75
2024/01/21 06:56:24;;;;;;;;;;;-8.90;99.90;;;;;;5055809;28;19933;-75
2024/01/21 06:58:50;;;;;;;;;;;-8.90;99.90;;;;;;5055982;28;19931;-76
2024/01/21 07:01:17;;;;;;;;;;;-8.90;99.90;;;;;;5056395;28;19932;-74
2024/01/21 07:03:45;;;;;;;;;;;-8.90;99.90;;;;;;5055127;28;19948;-74
2024/01/21 07:06:11;;;;;;;;;;;-8.80;99.90;;;;;;5055199;28;19939;-76
2024/01/21 07:08:40;;;;;;;;;;;-8.80;99.90;;;;;;5055074;28;19932;-74
2024/01/21 07:11:07;;;;;;;;;;;-8.80;99.90;;;;;;5055127;28;20042;-74
2024/01/21 07:13:34;;;;;;;;;;;-8.70;99.90;;;;;;5055073;28;19933;-74
2024/01/21 07:16:01;;;;;;;;;;;-8.70;99.90;;;;;;5055107;28;19925;-75
2024/01/21 07:18:27;;;;;;;;;;;-8.70;99.90;;;;;;5055172;28;19924;-74
2024/01/21 07:20:54;;;;;;;;;;;-8.60;99.90;;;;;;5055422;28;19924;-74
2024/01/21 07:23:20;;;;;;;;;;;-8.60;99.90;;;;;;5054940;28;19925;-74
2024/01/21 07:25:48;;;;;;;;;;;-8.60;99.90;;;;;;5054825;28;19925;-74
2024/01/21 07:28:15;;;;;;;;;;;-8.50;99.90;;;;;;5054833;28;20031;-74
2024/01/21 07:30:42;;;;;;;;;;;-8.50;99.90;;;;;;5053872;28;19986;-74
2024/01/21 07:33:08;;;;;;;;;;;-8.40;99.90;;;;;;5054192;28;19925;-74
2024/01/21 07:35:34;;;;;;;;;;;-8.40;99.90;;;;;;5054807;28;20349;-74
2024/01/21 07:38:01;;;;;;;;;;;-8.30;99.90;;;;;;5055213;28;19925;-74
2024/01/21 07:40:27;;;;;;;;;;;-8.30;99.90;;;;;;5055138;28;19932;-74
2024/01/21 07:42:55;;;;;;;;;;;-8.20;99.90;;;;;;5055051;28;19928;-74
2024/01/21 07:45:22;;;;;;;;;;;-8.20;99.90;;;;;;5054855;28;19925;-73
2024/01/21 07:47:49;;;;;;;;;;;-8.10;99.90;;;;;;5054399;28;19928;-73
2024/01/21 07:50:15;;;;;;;;;;;-8.00;99.90;;;;;;5053963;28;20283;-73
2024/01/21 07:52:43;;;;;;;;;;;-7.90;99.90;;;;;;5054444;28;20007;-74
2024/01/21 07:55:09;;;;;;;;;;;-7.80;99.90;;;;;;5054062;28;19925;-73
2024/01/21 07:57:36;;;;;;;;;;;-7.80;99.90;;;;;;5054214;28;19928;-73
2024/01/21 08:00:04;;;;;;;;;;;-7.60;99.90;;;;;;5054178;28;19932;-73
2024/01/21 08:02:31;;;;;;;;;;;-7.50;99.90;;;;;;5054043;28;19929;-73
2024/01/21 08:04:58;;;;;;;;;;;-7.40;99.90;;;;;;5053726;28;20336;-73
2024/01/21 08:07:26;;;;;;;;;;;-7.20;99.90;;;;;;5054037;28;19931;-73
2024/01/21 08:09:52;;;;;;;;;;;-7.10;99.90;;;;;;5054038;28;20023;-74
2024/01/21 08:12:19;;;;;;;;;;;-6.90;99.90;;;;;;5055828;28;19925;-73
2024/01/21 08:14:46;;;;;;;;;;;-6.60;99.90;;;;;;5057995;28;19935;-73
2024/01/21 08:17:14;;;;;;;;;;;-6.30;99.90;;;;;;5059632;28;19933;-73
2024/01/21 08:19:40;;;;;;;;;;;-6.10;99.90;;;;;;5060648;28;20267;-75
2024/01/21 08:22:08;;;;;;;;;;;-5.80;99.90;;;;;;5066830;28;19925;-73
2024/01/21 08:24:33;;;;;;;;;;;-5.60;99.90;;;;;;5057646;28;19936;-74
2024/01/21 08:27:00;;;;;;;;;;;-5.40;99.90;;;;;;5053950;28;19948;-74
2024/01/21 08:29:28;;;;;;;;;;;-5.10;99.90;;;;;;5054178;28;19925;-74
2024/01/21 08:31:56;;;;;;;;;;;-4.60;99.90;;;;;;5053712;28;20356;-74
2024/01/21 08:34:24;;;;;;;;;;;-4.10;99.90;;;;;;5053888;28;19932;-74
2024/01/21 08:36:50;;;;;;;;;;;-3.60;99.90;;;;;;5053805;28;19925;-75
2024/01/21 08:39:17;;;;;;;;;;;-3.30;99.90;;;;;;5053922;28;19929;-75
2024/01/21 08:41:43;;;;;;;;;;;-3.20;99.90;;;;;;5054492;28;19932;-76
2024/01/21 08:44:10;;;;;;;;;;;-3.10;99.90;;;;;;5057456;28;20374;-74
2024/01/21 08:46:36;;;;;;;;;;;-3.10;99.90;;;;;;5059616;28;19925;-74
2024/01/21 08:49:03;;;;;;;;;;;-3.00;99.90;;;;;;5057761;28;19924;-74
2024/01/21 08:51:31;;;;;;;;;;;-2.80;99.90;;;;;;5059930;28;19995;-74
2024/01/21 08:53:59;;;;;;;;;;;-2.60;99.90;;;;;;5059297;28;20424;-73
2024/01/21 08:56:26;;;;;;;;;;;-2.40;99.90;;;;;;5059481;28;19925;-76
2024/01/21 08:58:54;;;;;;;;;;;-2.20;99.90;;;;;;5061233;28;19925;-75
2024/01/21 09:01:20;;;;;;;;;;;-2.10;99.90;;;;;;5060111;28;19979;-76
2024/01/21 09:03:47;;;;;;;;;;;-1.90;99.90;;;;;;5057813;28;19929;-76
2024/01/21 09:06:14;;;;;;;;;;;-1.80;99.90;;;;;;5056871;28;20293;-76
2024/01/21 09:08:41;;;;;;;;;;;-1.70;99.90;;;;;;5057225;28;19932;-76
2024/01/21 09:11:08;;;;;;;;;;;-1.60;99.90;;;;;;5057217;28;19925;-76
2024/01/21 09:13:35;;;;;;;;;;;-1.70;99.90;;;;;;5057248;28;19925;-75
2024/01/21 09:16:01;;;;;;;;;;;-1.70;99.90;;;;;;5056660;28;19971;-75
2024/01/21 09:18:28;;;;;;;;;;;-1.60;99.90;;;;;;5057718;28;19929;-73
2024/01/21 09:20:54;;;;;;;;;;;-1.50;99.90;;;;;;5057550;28;19932;-74
2024/01/21 09:23:21;;;;;;;;;;;-1.40;99.90;;;;;;5056972;28;19932;-74
2024/01/21 09:25:49;;;;;;;;;;;-1.30;99.90;;;;;;5056935;28;19924;-75
2024/01/21 09:28:15;;;;;;;;;;;-1.20;99.90;;;;;;5057175;28;19934;-75
2024/01/21 09:30:42;;;;;;;;;;;-1.10;99.90;;;;;;5057307;28;19947;-74
2024/01/21 09:33:08;;;;;;;;;;;-1.10;99.90;;;;;;5057039;28;20350;-75
2024/01/21 09:35:35;;;;;;;;;;;-1.00;99.90;;;;;;5056415;28;20382;-73
2024/01/21 09:38:01;;;;;;;;;;;-0.80;99.90;;;;;;5056594;28;19925;-73
2024/01/21 09:40:28;;;;;;;;;;;-0.60;99.90;;;;;;5056500;28;20333;-74
2024/01/21 09:42:56;;;;;;;;;;;-0.40;99.90;;;;;;5056504;28;19925;-75
2024/01/21 09:45:23;;;;;;;;;;;-0.40;99.90;;;;;;5056448;28;19932;-75
2024/01/21 09:47:53;;;;;;;;;;;-0.40;99.90;;;;;;5056125;28;19924;-75
2024/01/21 09:50:20;;;;;;;;;;;-0.50;99.90;;;;;;5056418;28;19988;-74
2024/01/21 09:52:47;;;;;;;;;;;-0.60;99.90;;;;;;5056290;28;19924;-74
2024/01/21 09:55:14;;;;;;;;;;;-0.70;99.90;;;;;;5055235;28;19925;-74
2024/01/21 09:57:40;;;;;;;;;;;-0.80;99.90;;;;;;5055837;28;20390;-74
2024/01/21 10:00:10;;;;;;;;;;;-0.90;99.90;;;;;;5056123;28;19929;-74
2024/01/21 10:02:37;;;;;;;;;;;-1.00;99.90;;;;;;5056524;28;19924;-76
2024/01/21 10:05:04;;;;;;;;;;;-1.20;99.90;;;;;;5055993;28;19925;-76
2024/01/21 10:07:31;;;;;;;;;;;-1.30;99.90;;;;;;5056164;28;19924;-76
2024/01/21 10:09:58;;;;;;;;;;;-1.40;99.90;;;;;;5056116;28;19932;-76
2024/01/21 10:12:24;;;;;;;;;;;-1.30;99.90;;;;;;5057094;28;19931;-75
2024/01/21 10:14:51;;;;;;;;;;;-1.30;99.90;;;;;;5056007;28;19925;-73
2024/01/21 10:17:24;;;;;;;;;;;-1.30;99.90;;;;;;5055495;28;19964;-74
2024/01/21 10:19:53;;;;;;;;;;;-1.20;99.90;;;;;;5056493;28;19924;-73
2024/01/21 10:22:22;;;;;;;;;;;-1.10;99.90;;;;;;5056630;28;19928;-72
2024/01/21 10:24:49;;;;;;;;;;;-1.20;99.90;;;;;;5056568;28;19929;-73
2024/01/21 10:27:16;;;;;;;;;;;-1.20;99.90;;;;;;5056068;28;20401;-75
2024/01/21 10:29:43;;;;;;;;;;;-1.30;99.90;;;;;;5056256;28;19983;-75
2024/01/21 10:32:10;;;;;;;;;;;-1.30;99.90;;;;;;5056509;28;19932;-75
2024/01/21 10:34:40;;;;;;;;;;;-1.20;99.90;;;;;;5056184;28;19928;-76
2024/01/21 10:37:07;;;;;;;;;;;-1.20;99.90;;;;;;5056086;28;19936;-72
2024/01/21 10:39:36;;;;;;;;;;;-1.10;99.90;;;;;;5056106;28;19925;-73
2024/01/21 10:42:02;;;;;;;;;;;-1.10;99.90;;;;;;5055986;28;19932;-73
2024/01/21 10:44:29;;;;;;;;;;;-1.10;99.90;;;;;;5056067;28;19925;-75
2024/01/21 10:46:56;;;;;;;;;;;-1.00;99.90;;;;;;5055075;28;20373;-76
2024/01/21 10:49:23;;;;;;;;;;;-0.90;99.90;;;;;;5062202;28;19964;-75
2024/01/21 10:51:52;;;;;;;;;;;-0.80;99.90;;;;;;5074847;28;19909;-74
2024/01/21 10:54:18;;;;;;;;;;;-0.70;99.90;;;;;;5060911;28;19929;-75
2024/01/21 10:56:45;;;;;;;;;;;-0.60;99.90;;;;;;5055453;28;19932;-75
2024/01/21 10:59:12;;;;;;;;;;;-0.50;99.90;;;;;;5055149;28;20265;-75
2024/01/21 11:01:40;;;;;;;;;;;-0.50;99.90;;;;;;5055481;28;19929;-75
2024/01/21 11:04:10;;;;;;;;;;;-0.50;99.90;;;;;;5055396;28;20023;-76
2024/01/21 11:06:36;;;;;;;;;;;-0.50;99.90;;;;;;5055251;28;19979;-76
2024/01/21 11:09:07;;;;;;;;;;;-0.40;99.90;;;;;;5055415;28;19931;-76
2024/01/21 11:11:41;;;;;;;;;;;-0.30;99.90;;;;;;5055348;28;20027;-75
2024/01/21 11:14:28;;;;;;;;;;;-0.20;99.90;;;;;;5055168;28;19925;-76
2024/01/21 11:16:54;;;;;;;;;;;-0.20;99.90;;;;;;5055615;28;19925;-75
2024/01/21 11:19:22;;;;;;;;;;;-0.10;99.90;;;;;;5055484;28;19925;-74
2024/01/21 11:21:48;;;;;;;;;;;-0.10;99.90;;;;;;5056671;28;19982;-74
2024/01/21 11:24:16;;;;;;;;;;;-0.10;99.90;;;;;;5061447;28;19993;-73
2024/01/21 11:26:43;;;;;;;;;;;-0.10;99.90;;;;;;5062860;28;20374;-74
2024/01/21 11:29:23;;;;;;;;;;;-0.10;99.90;;;;;;5062357;28;19947;-72
2024/01/21 11:31:49;;;;;;;;;;;0.00;99.90;;;;;;5060825;28;19925;-73
2024/01/21 11:34:17;;;;;;;;;;;0.00;99.90;;;;;;5057253;28;19929;-74
2024/01/21 17:23:12;;;;;;;;;;;-3.00;99.90;;;;;;5590899;22;19925;-73
2024/01/21 17:25:38;;;;;;;;;;;-3.00;99.90;;;;;;5037367;28;20279;-74
2024/01/21 17:28:06;;;;;;;;;;;-3.00;99.90;;;;;;5037031;28;19984;-75
2024/01/21 17:30:32;;;;;;;;;;;-3.00;99.90;;;;;;5036721;28;19935;-74
2024/01/21 17:32:59;;;;;;;;;;;-2.90;99.90;;;;;;5036571;28;19925;-75
2024/01/21 17:35:26;;;;;;;;;;;-2.90;99.90;;;;;;5036361;28;20405;-75
2024/01/21 17:37:53;;;;;;;;;;;-3.00;99.90;;;;;;5059639;22;19991;-72
2024/01/21 17:40:20;;;;;;;;;;;-3.00;99.90;;;;;;5037107;28;19932;-73
2024/01/21 17:42:47;;;;;;;;;;;-3.00;99.90;;;;;;5037265;28;19932;-74
2024/01/21 17:45:14;;;;;;;;;;;-3.00;99.90;;;;;;5037987;28;19927;-72
2024/01/21 17:47:41;;;;;;;;;;;-3.10;99.90;;;;;;5037048;28;19979;-72
2024/01/21 17:50:08;;;;;;;;;;;-3.10;99.90;;;;;;5037700;28;19925;-76
2024/01/21 17:52:34;;;;;;;;;;;-3.20;99.90;;;;;;5037087;28;19932;-74
2024/01/21 17:55:01;;;;;;;;;;;-3.20;99.90;;;;;;5036895;28;19929;-74
2024/01/21 17:57:31;;;;;;;;;;;-3.30;99.90;;;;;;5036751;28;19939;-74
2024/01/21 17:59:58;;;;;;;;;;;-3.30;99.90;;;;;;5036750;28;19925;-74
2024/01/21 18:02:24;;;;;;;;;;;-3.30;99.90;;;;;;5038688;28;19926;-75
2024/01/21 18:04:51;;;;;;;;;;;-3.40;99.90;;;;;;5038806;28;19929;-74
2024/01/21 18:07:19;;;;;;;;;;;-3.40;99.90;;;;;;5038959;28;19932;-74
2024/01/21 18:09:45;;;;;;;;;;;-3.40;99.90;;;;;;5038193;28;19925;-74
2024/01/21 18:12:12;;;;;;;;;;;-3.50;99.90;;;;;;5038284;28;19926;-73
2024/01/21 18:14:40;;;;;;;;;;;-3.50;99.90;;;;;;5037353;28;20375;-73
2024/01/21 18:17:06;;;;;;;;;;;-3.60;99.90;;;;;;5036437;28;19926;-73
2024/01/21 18:19:34;;;;;;;;;;;-3.60;99.90;;;;;;5036083;28;20290;-73
2024/01/21 18:22:00;;;;;;;;;;;-3.60;99.90;;;;;;5037522;28;19935;-72
2024/01/21 18:24:27;;;;;;;;;;;-3.70;99.90;;;;;;5037054;28;19929;-72
2024/01/21 18:26:53;;;;;;;;;;;-3.70;99.90;;;;;;5037240;28;19925;-72
2024/01/21 18:29:20;;;;;;;;;;;-3.70;99.90;;;;;;5036778;28;19932;-72
2024/01/21 18:31:48;;;;;;;;;;;-3.80;99.90;;;;;;5036562;28;19933;-73
2024/01/21 18:34:16;;;;;;;;;;;-3.80;99.90;;;;;;5037064;28;19925;-73
2024/01/21 18:36:43;;;;;;;;;;;-3.80;99.90;;;;;;5037604;28;19979;-72
2024/01/21 18:39:10;;;;;;;;;;;-3.90;99.90;;;;;;5036549;28;19925;-72
2024/01/21 18:41:36;;;;;;;;;;;-3.90;99.90;;;;;;5037363;28;19931;-74
2024/01/21 18:44:03;;;;;;;;;;;-3.90;99.90;;;;;;5037234;28;19936;-73
2024/01/21 18:46:29;;;;;;;;;;;-3.90;99.90;;;;;;5036470;28;20401;-74
2024/01/21 18:48:57;;;;;;;;;;;-3.90;99.90;;;;;;5036867;28;19932;-76
2024/01/21 18:51:25;;;;;;;;;;;-4.00;99.90;;;;;;5037591;28;19925;-76
2024/01/21 18:53:51;;;;;;;;;;;-4.00;99.90;;;;;;5040581;28;19929;-76
2024/01/21 18:56:22;;;;;;;;;;;-4.00;99.90;;;;;;5040708;28;20398;-74
2024/01/21 18:58:49;;;;;;;;;;;-4.00;99.90;;;;;;5040387;28;19925;-74
2024/01/21 19:01:15;;;;;;;;;;;-4.10;99.90;;;;;;5040365;28;19932;-75
2024/01/21 19:03:42;;;;;;;;;;;-4.10;99.90;;;;;;5041109;28;19932;-74
2024/01/21 19:06:14;;;;;;;;;;;-4.10;99.90;;;;;;5040498;28;19932;-75
2024/01/21 19:08:41;;;;;;;;;;;-4.20;99.90;;;;;;5037912;28;20357;-73
2024/01/21 19:11:07;;;;;;;;;;;-4.20;99.90;;;;;;5038536;28;20401;-76
2024/01/21 19:13:34;;;;;;;;;;;-4.20;99.90;;;;;;5042586;28;19932;-74
2024/01/21 19:16:01;;;;;;;;;;;-4.20;99.90;;;;;;5043151;28;19924;-75
2024/01/21 19:18:27;;;;;;;;;;;-4.30;99.90;;;;;;5042351;28;19925;-75
2024/01/21 19:20:54;;;;;;;;;;;-4.30;99.90;;;;;;5041213;28;19925;-75
2024/01/21 19:23:22;;;;;;;;;;;-4.30;99.90;;;;;;5039544;28;19925;-73
2024/01/21 19:25:48;;;;;;;;;;;-4.30;99.90;;;;;;5038792;28;19925;-75
2024/01/21 19:28:15;;;;;;;;;;;-4.30;99.90;;;;;;5039076;28;19925;-73
2024/01/21 19:30:41;;;;;;;;;;;-4.30;99.90;;;;;;5039301;28;19930;-75
2024/01/21 19:33:08;;;;;;;;;;;-4.30;99.90;;;;;;5039705;28;19996;-74
2024/01/21 19:35:34;;;;;;;;;;;-4.40;99.90;;;;;;5038458;28;19925;-72
2024/01/21 19:38:01;;;;;;;;;;;-4.40;99.90;;;;;;5037219;28;19925;-72
2024/01/21 19:40:30;;;;;;;;;;;-4.40;99.90;;;;;;5036944;28;20397;-73
2024/01/21 19:42:57;;;;;;;;;;;-4.40;99.90;;;;;;5037296;28;19970;-71
2024/01/21 19:45:24;;;;;;;;;;;-4.50;99.90;;;;;;5037749;28;19925;-73
2024/01/21 19:47:50;;;;;;;;;;;-4.50;99.90;;;;;;5037577;28;20321;-73
2024/01/21 19:50:17;;;;;;;;;;;-4.50;99.90;;;;;;5038349;28;19925;-74
2024/01/21 19:52:44;;;;;;;;;;;-4.50;99.90;;;;;;5040658;28;20374;-76
2024/01/21 19:55:12;;;;;;;;;;;-4.50;99.90;;;;;;5038738;28;21493;-76
2024/01/21 19:57:40;;;;;;;;;;;-4.50;99.90;;;;;;5038981;28;19925;-76
2024/01/21 20:00:08;;;;;;;;;;;-4.50;99.90;;;;;;5038916;28;19992;-77
2024/01/21 20:02:35;;;;;;;;;;;-4.50;99.90;;;;;;5039150;28;19933;-78
2024/01/21 20:05:02;;;;;;;;;;;-4.50;99.90;;;;;;5039734;28;19929;-77
2024/01/21 20:07:28;;;;;;;;;;;-4.50;99.90;;;;;;5039490;28;19925;-77
2024/01/21 20:09:54;;;;;;;;;;;-4.40;99.90;;;;;;5039466;28;19925;-78
2024/01/21 20:12:20;;;;;;;;;;;-4.40;99.90;;;;;;5039642;28;19959;-77
2024/01/21 20:14:48;;;;;;;;;;;-4.40;99.90;;;;;;5040398;28;19925;-77
2024/01/21 20:17:15;;;;;;;;;;;-4.40;99.90;;;;;;5039623;28;19964;-77
2024/01/21 20:19:42;;;;;;;;;;;-4.50;99.90;;;;;;5039091;28;19948;-77
2024/01/21 20:22:08;;;;;;;;;;;-4.50;99.90;;;;;;5041265;28;19933;-77
2024/01/21 20:24:35;;;;;;;;;;;-4.50;99.90;;;;;;5046141;28;19924;-77
2024/01/21 20:27:01;;;;;;;;;;;-4.50;99.90;;;;;;5046586;28;19931;-77
2024/01/21 20:29:28;;;;;;;;;;;-4.50;99.90;;;;;;5049191;28;19931;-77
2024/01/21 20:31:56;;;;;;;;;;;-4.50;99.90;;;;;;5044439;28;19952;-77
2024/01/21 20:34:22;;;;;;;;;;;-4.60;99.90;;;;;;5039216;28;19935;-76
2024/01/21 20:36:49;;;;;;;;;;;-4.60;99.90;;;;;;5034553;28;19929;-78
2024/01/21 20:39:15;;;;;;;;;;;-4.60;99.90;;;;;;5035895;28;19932;-78
2024/01/21 20:41:42;;;;;;;;;;;-4.70;99.90;;;;;;5038806;28;19929;-78
2024/01/21 20:44:09;;;;;;;;;;;-4.70;99.90;;;;;;5038720;28;19932;-77
2024/01/21 20:46:36;;;;;;;;;;;-4.70;99.90;;;;;;5038489;28;20015;-77
2024/01/21 20:49:04;;;;;;;;;;;-4.80;99.90;;;;;;5039313;28;19929;-77
2024/01/21 20:51:30;;;;;;;;;;;-4.80;99.90;;;;;;5038891;28;19932;-77
2024/01/21 20:53:58;;;;;;;;;;;-4.80;99.90;;;;;;5038848;28;19925;-77
2024/01/21 20:56:25;;;;;;;;;;;-4.80;99.90;;;;;;5038810;28;19925;-77
2024/01/21 20:58:51;;;;;;;;;;;-4.80;99.90;;;;;;5038993;28;19932;-77
2024/01/21 21:01:18;;;;;;;;;;;-4.80;99.90;;;;;;5038784;28;19925;-76
2024/01/21 21:03:45;;;;;;;;;;;-4.80;99.90;;;;;;5038321;28;20333;-74
2024/01/21 21:06:13;;;;;;;;;;;-4.80;99.90;;;;;;5038294;28;19968;-76
2024/01/21 21:08:40;;;;;;;;;;;-4.80;99.90;;;;;;5039156;28;19925;-76
2024/01/21 21:11:07;;;;;;;;;;;-4.90;99.90;;;;;;5039512;28;19925;-75
2024/01/21 21:13:33;;;;;;;;;;;-4.90;99.90;;;;;;5038588;28;19932;-76
2024/01/21 21:16:00;;;;;;;;;;;-4.90;99.90;;;;;;5038786;28;20460;-76
2024/01/21 21:18:27;;;;;;;;;;;-4.90;99.90;;;;;;5037990;28;20392;-75
2024/01/21 21:20:53;;;;;;;;;;;-5.00;99.90;;;;;;5037203;28;19933;-75
2024/01/21 21:23:23;;;;;;;;;;;-5.00;99.90;;;;;;5037663;28;19932;-75
2024/01/21 21:25:50;;;;;;;;;;;-5.00;99.90;;;;;;5037185;28;20452;-75
2024/01/21 21:28:16;;;;;;;;;;;-5.00;99.90;;;;;;5037807;28;19929;-75
2024/01/21 21:30:44;;;;;;;;;;;-5.00;99.90;;;;;;5037808;28;19932;-75
2024/01/21 21:33:10;;;;;;;;;;;-5.00;99.90;;;;;;5041134;28;19925;-75
2024/01/21 21:35:39;;;;;;;;;;;-5.10;99.90;;;;;;5040393;28;19926;-75
2024/01/21 21:38:05;;;;;;;;;;;-5.10;99.90;;;;;;5039921;28;19925;-75
